createdAt,value
2023-04-26T00:04:11.921Z,11
2023-04-26T00:10:01.387Z,10
2023-04-26T00:15:11.684Z,10
2023-04-26T00:21:01.357Z,8
2023-04-26T00:26:01.410Z,12
2023-04-26T00:37:01.392Z,10
2023-04-26T00:42:11.711Z,13
2023-04-26T00:47:11.704Z,11
2023-04-26T00:52:11.681Z,7
2023-04-26T00:58:01.375Z,10
2023-04-26T01:03:11.824Z,9
2023-04-26T01:09:01.377Z,10
2023-04-26T01:14:11.715Z,9
2023-04-26T01:19:11.682Z,10
2023-04-26T01:25:01.402Z,10
2023-04-26T01:30:11.669Z,11
2023-04-26T01:35:11.679Z,9
2023-04-26T01:41:01.365Z,10
2023-04-26T01:56:11.677Z,10
2023-04-26T02:02:01.587Z,10
2023-04-26T02:07:11.639Z,9
2023-04-26T02:12:11.663Z,11
2023-04-26T02:18:01.434Z,11
2023-04-26T02:23:11.659Z,12
2023-04-26T02:29:01.374Z,10
2023-04-26T02:34:11.664Z,9
2023-04-26T02:39:11.663Z,13
2023-04-26T02:44:11.678Z,10
2023-04-26T02:50:01.376Z,11
2023-04-26T02:55:01.386Z,10
2023-04-26T03:00:11.641Z,11
2023-04-26T03:05:11.660Z,10
2023-04-26T03:10:11.674Z,10
2023-04-26T03:16:01.436Z,13
2023-04-26T03:21:11.660Z,13
2023-04-26T03:27:01.361Z,10
2023-04-26T03:32:01.399Z,11
2023-04-26T03:37:11.653Z,11
2023-04-26T03:42:11.667Z,11
2023-04-26T03:47:11.680Z,13
2023-04-26T03:53:01.366Z,10
2023-04-26T03:58:01.515Z,12
2023-04-26T04:03:01.656Z,13
2023-04-26T04:08:11.674Z,11
2023-04-26T04:14:01.394Z,11
2023-04-26T04:19:11.676Z,12
2023-04-26T04:25:01.398Z,12
2023-04-26T04:30:11.676Z,11
2023-04-26T04:41:01.734Z,10
2023-04-26T04:46:12.893Z,10
2023-04-26T04:51:11.660Z,10
2023-04-26T04:57:01.610Z,9
2023-04-26T05:02:11.755Z,14
2023-04-26T05:08:01.389Z,12
2023-04-26T05:13:11.638Z,11
2023-04-26T05:18:11.759Z,10
2023-04-26T05:24:01.611Z,12
2023-04-26T05:29:11.663Z,10
2023-04-26T05:35:01.452Z,11
2023-04-26T05:40:11.654Z,29
2023-04-26T05:45:11.655Z,9
2023-04-26T05:51:01.571Z,9
2023-04-26T05:56:01.428Z,12
2023-04-26T06:01:01.495Z,12
2023-04-26T06:06:11.655Z,10
2023-04-26T06:11:11.664Z,11
2023-04-26T06:21:11.695Z,10
2023-04-26T06:27:01.550Z,10
2023-04-26T06:32:11.659Z,13
2023-04-26T06:37:11.666Z,9
2023-04-26T06:43:01.421Z,9
2023-04-26T06:48:11.727Z,11
2023-04-26T06:54:01.548Z,12
2023-04-26T06:59:11.688Z,10
2023-04-26T07:05:01.875Z,12
2023-04-26T07:10:11.668Z,9
2023-04-26T07:21:01.371Z,9
2023-04-26T07:26:01.571Z,11
2023-04-26T07:31:01.600Z,17
2023-04-26T07:36:01.596Z,12
2023-04-26T07:41:01.661Z,14
2023-04-26T07:46:11.702Z,14
2023-04-26T07:51:11.665Z,13
2023-04-26T07:56:11.698Z,14
2023-04-26T08:01:11.816Z,12
2023-04-26T08:06:11.792Z,15
2023-04-26T08:12:01.534Z,15
2023-04-26T08:17:11.849Z,10
2023-04-26T08:23:01.423Z,11
2023-04-26T08:28:01.410Z,11
2023-04-26T08:33:11.681Z,13
2023-04-26T08:39:01.398Z,12
2023-04-26T08:44:01.428Z,22
2023-04-26T08:49:11.697Z,11
2023-04-26T08:55:01.403Z,14
2023-04-26T09:00:01.399Z,10
2023-04-26T09:05:11.917Z,10
2023-04-26T09:10:11.697Z,13
2023-04-26T09:15:11.703Z,15
2023-04-26T09:20:11.715Z,13
2023-04-26T09:26:01.407Z,10
2023-04-26T09:31:01.421Z,10
2023-04-26T09:36:11.699Z,10
2023-04-26T09:41:11.732Z,11
2023-04-26T09:47:01.446Z,9
2023-04-26T09:52:01.409Z,9
2023-04-26T09:57:01.414Z,9
2023-04-26T10:02:01.404Z,10
2023-04-26T10:07:11.693Z,9
2023-04-26T10:12:11.716Z,11
2023-04-26T10:17:11.722Z,9
2023-04-26T10:23:01.412Z,8
2023-04-26T10:28:11.754Z,7
2023-04-26T10:34:01.432Z,8
2023-04-26T10:39:11.745Z,13
2023-04-26T10:44:11.720Z,8
2023-04-26T10:50:02.907Z,7
2023-04-26T10:55:11.743Z,12
2023-04-26T11:00:11.726Z,11
2023-04-26T11:06:01.433Z,10
2023-04-26T11:11:12.119Z,8
2023-04-26T11:17:01.442Z,11
2023-04-26T11:22:01.439Z,11
2023-04-26T11:27:01.445Z,9
2023-04-26T11:32:11.729Z,13
2023-04-26T11:37:11.727Z,10
2023-04-26T11:43:01.484Z,13
2023-04-26T11:48:11.741Z,12
2023-04-26T11:53:11.738Z,9
2023-04-26T11:58:11.743Z,8
2023-04-26T12:04:01.620Z,11
2023-04-26T12:09:01.455Z,9
2023-04-26T12:14:11.752Z,9
2023-04-26T12:19:11.816Z,9
2023-04-26T12:25:01.441Z,6
2023-04-26T12:30:01.443Z,12
2023-04-26T12:35:01.446Z,12
2023-04-26T12:40:01.448Z,10
2023-04-26T12:45:01.467Z,9
2023-04-26T12:50:01.486Z,8
2023-04-26T12:55:11.849Z,9
2023-04-26T13:01:01.522Z,14
2023-04-26T13:06:01.456Z,12
2023-04-26T13:11:11.865Z,13
2023-04-26T13:17:01.479Z,10
2023-04-26T13:22:11.746Z,17
2023-04-26T13:28:01.466Z,15
2023-04-26T13:33:11.790Z,11
2023-04-26T13:38:11.846Z,11
2023-04-26T13:44:01.474Z,14
2023-04-26T13:49:11.751Z,10
2023-04-26T13:54:11.764Z,12
2023-04-26T13:59:11.800Z,9
2023-04-26T14:05:01.638Z,10
2023-04-26T14:10:01.463Z,12
2023-04-26T14:15:01.530Z,17
2023-04-26T14:20:11.775Z,15
2023-04-26T14:26:01.460Z,12
2023-04-26T14:31:11.797Z,12
2023-04-26T14:36:11.779Z,13
2023-04-26T14:42:01.475Z,14
2023-04-26T14:47:01.463Z,10
2023-04-26T14:52:01.481Z,15
2023-04-26T14:57:01.485Z,15
2023-04-26T15:02:11.860Z,11
2023-04-26T15:08:01.502Z,9
2023-04-26T15:13:01.510Z,12
2023-04-26T15:18:11.814Z,13
2023-04-26T15:23:11.771Z,11
2023-04-26T15:28:11.862Z,10
2023-04-26T15:34:01.478Z,13
2023-04-26T15:39:01.495Z,11
2023-04-26T15:44:11.780Z,12
2023-04-26T15:50:01.572Z,15
2023-04-26T15:55:11.776Z,16
2023-04-26T16:01:01.482Z,13
2023-04-26T16:06:01.508Z,12
2023-04-26T16:11:11.825Z,13
2023-04-26T16:17:01.571Z,18
2023-04-26T16:22:11.784Z,18
2023-04-26T16:27:11.795Z,22
2023-04-26T16:33:01.580Z,16
2023-04-26T16:38:11.815Z,16
2023-04-26T16:43:11.827Z,24
2023-04-26T16:49:01.534Z,22
2023-04-26T16:54:11.724Z,33
2023-04-26T16:59:11.826Z,23
2023-04-26T17:05:01.765Z,27
2023-04-26T17:10:01.523Z,22
2023-04-26T17:15:04.318Z,22
2023-04-26T17:20:01.558Z,27
2023-04-26T17:25:01.570Z,26
2023-04-26T17:30:11.815Z,17
2023-04-26T17:36:01.513Z,18
2023-04-26T17:41:11.802Z,20
2023-04-26T17:46:11.839Z,18
2023-04-26T17:52:01.508Z,24
2023-04-26T17:57:11.824Z,15
2023-04-26T18:03:01.696Z,20
2023-04-26T18:08:01.518Z,24
2023-04-26T18:13:11.824Z,22
2023-04-26T18:19:01.514Z,22
2023-04-26T18:24:01.572Z,25
2023-04-26T18:29:11.820Z,20
2023-04-26T18:35:01.541Z,28
2023-04-26T18:40:01.532Z,22
2023-04-26T18:45:11.817Z,21
2023-04-26T18:50:11.828Z,22
2023-04-26T18:56:01.502Z,27
2023-04-26T19:01:01.502Z,19
2023-04-26T19:06:01.545Z,25
2023-04-26T19:11:01.590Z,17
2023-04-26T19:16:11.898Z,17
2023-04-26T19:21:11.830Z,22
2023-04-26T19:27:01.551Z,26
2023-04-26T19:32:11.813Z,33
2023-04-26T19:38:01.526Z,15
2023-04-26T19:48:11.839Z,14
2023-04-26T19:54:01.541Z,19
2023-04-26T19:59:01.540Z,18
2023-04-26T20:04:11.951Z,15
2023-04-26T20:10:01.541Z,14
2023-04-26T20:15:11.836Z,15
2023-04-26T20:21:01.531Z,13
2023-04-26T20:26:01.549Z,12
2023-04-26T20:31:11.852Z,13
2023-04-26T20:36:11.980Z,14
2023-04-26T20:42:01.515Z,14
2023-04-26T20:47:01.538Z,12
2023-04-26T20:52:01.546Z,15
2023-04-26T20:57:01.537Z,12
2023-04-26T21:02:01.625Z,14
2023-04-26T21:07:01.547Z,12
2023-04-26T21:12:01.562Z,12
2023-04-26T21:17:11.830Z,15
2023-04-26T21:22:11.881Z,13
2023-04-26T21:28:01.568Z,11
2023-04-26T21:33:11.882Z,11
2023-04-26T21:38:11.844Z,12
2023-04-26T21:43:11.864Z,13
2023-04-26T21:49:01.558Z,13
2023-04-26T21:54:01.534Z,10
2023-04-26T21:59:01.542Z,14
2023-04-26T22:04:01.690Z,11
2023-04-26T22:09:12.142Z,12
2023-04-26T22:14:11.850Z,11
2023-04-26T22:19:12.095Z,12
2023-04-26T22:25:01.546Z,13
2023-04-26T22:30:22.795Z,11
2023-04-26T22:36:01.527Z,13
2023-04-26T22:41:01.579Z,14
2023-04-26T22:46:11.882Z,13
2023-04-26T22:51:11.845Z,11
2023-04-26T22:57:01.580Z,12
2023-04-26T23:02:11.847Z,11
2023-04-26T23:07:11.853Z,13
2023-04-26T23:13:01.541Z,13
2023-04-26T23:18:01.600Z,13
2023-04-26T23:23:11.863Z,12
2023-04-26T23:29:01.550Z,13
2023-04-26T23:34:11.825Z,12
2023-04-26T23:39:12.102Z,12
2023-04-26T23:45:01.558Z,13
2023-04-26T23:50:01.556Z,15
2023-04-26T23:55:11.850Z,13
